Time;durP1;ratioP1;P1;durP2;ratioP2;P2;SDS_P1;SDS_P2;PMS_P1;PMS_P2;Temp;Humidity;BMP_temperature;BMP_pressure;BME280_temperature;BME280_humidity;BME280_pressure;Samples;Min_cycle;Max_cycle;Signal;HPM_P1;HPM_P2
2023/09/11 00:00:56;;;;;;;29.17;15.95;;;;;;;;;;5004731;28;20038;-70
2023/09/11 00:03:22;;;;;;;24.80;15.73;;;;;;;;;;5012860;28;20514;-70
2023/09/11 00:05:50;;;;;;;28.50;14.40;;;;;;;;;;5002520;28;20056;-70
2023/09/11 00:08:16;;;;;;;33.22;16.50;;;;;;;;;;5012337;28;20069;-70
2023/09/11 00:10:42;;;;;;;29.50;16.08;;;;;;;;;;5012510;28;20065;-70
2023/09/11 00:13:08;;;;;;;24.60;15.02;;;;;;;;;;5012963;28;20066;-70
2023/09/11 00:15:34;;;;;;;27.10;15.43;;;;;;;;;;5011824;28;20038;-70
2023/09/11 00:18:00;;;;;;;28.20;16.00;;;;;;;;;;5012277;28;20045;-70
2023/09/11 00:20:26;;;;;;;31.98;16.15;;;;;;;;;;5012285;28;20049;-70
2023/09/11 00:22:52;;;;;;;27.88;16.25;;;;;;;;;;5012782;28;20038;-70
2023/09/11 00:25:19;;;;;;;27.55;15.60;;;;;;;;;;5011768;28;20601;-70
2023/09/11 00:27:45;;;;;;;30.05;16.63;;;;;;;;;;5012458;28;20030;-70
2023/09/11 00:30:11;;;;;;;27.65;16.05;;;;;;;;;;5012270;28;20073;-70
2023/09/11 00:32:37;;;;;;;26.90;14.82;;;;;;;;;;5012133;28;20395;-69
2023/09/11 00:35:03;;;;;;;24.67;15.48;;;;;;;;;;5003772;28;20038;-69
2023/09/11 00:37:29;;;;;;;26.30;15.88;;;;;;;;;;5012401;28;20049;-69
2023/09/11 00:39:55;;;;;;;21.58;14.95;;;;;;;;;;5012106;28;20038;-69
2023/09/11 00:42:21;;;;;;;26.60;15.88;;;;;;;;;;5012270;28;20392;-69
2023/09/11 00:44:47;;;;;;;24.50;17.02;;;;;;;;;;5012278;28;20034;-69
2023/09/11 00:47:12;;;;;;;21.20;14.77;;;;;;;;;;5012031;28;20444;-69
2023/09/11 00:49:39;;;;;;;25.65;16.35;;;;;;;;;;5011047;28;20036;-69
2023/09/11 00:52:05;;;;;;;21.63;14.85;;;;;;;;;;5012272;28;20091;-69
2023/09/11 00:54:31;;;;;;;23.27;15.10;;;;;;;;;;5012126;28;20487;-69
2023/09/11 00:56:57;;;;;;;28.02;15.57;;;;;;;;;;5011973;28;20499;-69
2023/09/11 00:59:24;;;;;;;21.95;16.25;;;;;;;;;;5011928;28;20081;-69
2023/09/11 01:01:50;;;;;;;26.63;15.23;;;;;;;;;;5012008;28;20132;-69
2023/09/11 01:04:16;;;;;;;25.30;16.08;;;;;;;;;;5001460;28;20132;-69
2023/09/11 01:06:42;;;;;;;28.95;16.23;;;;;;;;;;5010951;28;20034;-69
2023/09/11 01:09:08;;;;;;;21.75;15.70;;;;;;;;;;5012107;28;20205;-69
2023/09/11 01:11:34;;;;;;;21.85;15.57;;;;;;;;;;5011978;28;20112;-69
2023/09/11 01:14:01;;;;;;;24.38;17.25;;;;;;;;;;5011858;28;20120;-69
2023/09/11 01:16:34;;;;;;;28.92;16.75;;;;;;;;;;5011233;28;20117;-69
2023/09/11 01:19:16;;;;;;;25.70;17.33;;;;;;;;;;5012093;28;20069;-69
2023/09/11 01:22:00;;;;;;;32.55;18.42;;;;;;;;;;5011345;28;20569;-69
2023/09/11 01:24:45;;;;;;;30.50;17.08;;;;;;;;;;5012116;28;20096;-69
2023/09/11 01:27:29;;;;;;;25.45;18.00;;;;;;;;;;5011541;28;20056;-69
2023/09/11 01:29:57;;;;;;;28.35;18.27;;;;;;;;;;5011945;28;20079;-69
2023/09/11 01:32:25;;;;;;;25.08;16.85;;;;;;;;;;5015446;28;20052;-69
2023/09/11 01:34:51;;;;;;;24.65;17.42;;;;;;;;;;5015450;28;20565;-69
2023/09/11 01:37:17;;;;;;;27.05;16.60;;;;;;;;;;5015170;28;20029;-69
2023/09/11 01:39:44;;;;;;;28.13;17.75;;;;;;;;;;5015308;28;20052;-69
2023/09/11 01:42:11;;;;;;;26.95;17.58;;;;;;;;;;5015253;28;20117;-69
2023/09/11 01:44:43;;;;;;;27.35;18.55;;;;;;;;;;5015330;28;20168;-69
2023/09/11 01:47:10;;;;;;;26.23;17.35;;;;;;;;;;5014711;28;20038;-69
2023/09/11 01:49:38;;;;;;;27.45;17.20;;;;;;;;;;5015357;28;20030;-69
2023/09/11 01:52:04;;;;;;;27.13;18.13;;;;;;;;;;5014779;28;20042;-69
2023/09/11 01:54:31;;;;;;;34.25;19.73;;;;;;;;;;5014899;28;20056;-69
2023/09/11 01:56:57;;;;;;;28.77;18.30;;;;;;;;;;5014534;28;20038;-69
2023/09/11 01:59:24;;;;;;;27.58;17.15;;;;;;;;;;5015006;28;20124;-69
2023/09/11 02:01:50;;;;;;;34.28;18.70;;;;;;;;;;5005350;28;20049;-69
2023/09/11 02:04:16;;;;;;;28.83;17.10;;;;;;;;;;5003497;28;20035;-69
2023/09/11 02:06:42;;;;;;;31.95;17.15;;;;;;;;;;5013201;28;20030;-69
2023/09/11 02:09:08;;;;;;;21.27;16.67;;;;;;;;;;5014535;28;20116;-69
2023/09/11 02:11:34;;;;;;;28.23;18.45;;;;;;;;;;5012979;28;20045;-69
2023/09/11 02:14:00;;;;;;;24.60;17.17;;;;;;;;;;5015008;28;20046;-70
2023/09/11 02:16:26;;;;;;;25.65;17.02;;;;;;;;;;5014348;28;20053;-70
2023/09/11 02:18:52;;;;;;;27.60;17.33;;;;;;;;;;5015142;28;20072;-70
2023/09/11 02:21:18;;;;;;;26.77;17.83;;;;;;;;;;5014070;28;20052;-70
2023/09/11 02:23:44;;;;;;;28.45;16.80;;;;;;;;;;5014983;28;20038;-70
2023/09/11 02:26:10;;;;;;;27.75;18.65;;;;;;;;;;5014286;28;20040;-70
2023/09/11 02:28:36;;;;;;;32.22;18.67;;;;;;;;;;5014129;28;20034;-70
2023/09/11 02:31:02;;;;;;;27.73;18.88;;;;;;;;;;5014455;28;20034;-70
2023/09/11 02:33:28;;;;;;;24.50;17.80;;;;;;;;;;5014734;28;20120;-70
2023/09/11 02:35:58;;;;;;;25.80;17.50;;;;;;;;;;5014204;28;20041;-70
2023/09/11 02:38:24;;;;;;;26.55;18.00;;;;;;;;;;5013964;28;20037;-70
2023/09/11 02:40:50;;;;;;;26.33;18.08;;;;;;;;;;5013941;28;20052;-70
2023/09/11 02:43:16;;;;;;;30.10;16.80;;;;;;;;;;5014118;28;20050;-70
2023/09/11 02:45:45;;;;;;;27.25;18.42;;;;;;;;;;5013566;28;20037;-70
2023/09/11 02:48:12;;;;;;;23.00;18.60;;;;;;;;;;5012767;28;20116;-70
2023/09/11 02:50:38;;;;;;;30.52;19.77;;;;;;;;;;5014221;28;20044;-70
2023/09/11 02:53:08;;;;;;;25.52;17.63;;;;;;;;;;5014279;28;20065;-70
2023/09/11 02:55:38;;;;;;;26.88;18.70;;;;;;;;;;5009495;28;20073;-70
2023/09/11 02:58:04;;;;;;;28.95;18.63;;;;;;;;;;5010182;28;20049;-70
2023/09/11 03:00:30;;;;;;;30.58;19.67;;;;;;;;;;5014080;28;20089;-70
2023/09/11 03:02:56;;;;;;;28.27;17.77;;;;;;;;;;5013634;28;20044;-70
2023/09/11 03:05:22;;;;;;;29.95;18.50;;;;;;;;;;5001719;28;20073;-70
2023/09/11 03:07:48;;;;;;;28.50;19.38;;;;;;;;;;5013266;28;20053;-70
2023/09/11 03:10:14;;;;;;;29.45;18.17;;;;;;;;;;5013585;28;20476;-69
2023/09/11 03:12:41;;;;;;;37.58;18.20;;;;;;;;;;5013556;28;20045;-69
2023/09/11 03:15:07;;;;;;;28.00;18.58;;;;;;;;;;5013771;28;20084;-69
2023/09/11 03:17:33;;;;;;;28.50;18.80;;;;;;;;;;5013657;28;20033;-69
2023/09/11 03:19:59;;;;;;;34.30;18.48;;;;;;;;;;5013297;28;20107;-69
2023/09/11 03:22:25;;;;;;;27.45;19.42;;;;;;;;;;5013105;28;20042;-69
2023/09/11 03:24:51;;;;;;;30.00;19.35;;;;;;;;;;5013871;28;20038;-69
2023/09/11 03:27:17;;;;;;;31.25;18.70;;;;;;;;;;5012849;28;20506;-69
2023/09/11 03:29:43;;;;;;;28.20;19.27;;;;;;;;;;5013597;28;20038;-69
2023/09/11 03:32:09;;;;;;;30.10;19.02;;;;;;;;;;5012945;28;20041;-69
2023/09/11 03:34:35;;;;;;;31.15;19.40;;;;;;;;;;5013145;28;20096;-69
2023/09/11 03:37:01;;;;;;;27.08;18.08;;;;;;;;;;5012632;28;20077;-69
2023/09/11 03:39:27;;;;;;;30.25;18.25;;;;;;;;;;5005419;28;20121;-69
2023/09/11 03:41:53;;;;;;;26.88;19.05;;;;;;;;;;5013439;28;20038;-69
2023/09/11 03:44:19;;;;;;;34.88;19.38;;;;;;;;;;5012946;28;20040;-69
2023/09/11 03:46:45;;;;;;;28.10;18.27;;;;;;;;;;5012658;28;20041;-69
2023/09/11 03:49:10;;;;;;;32.83;18.65;;;;;;;;;;5013160;28;20041;-69
2023/09/11 03:51:36;;;;;;;30.42;18.67;;;;;;;;;;5012635;28;20507;-69
2023/09/11 03:54:07;;;;;;;29.33;18.75;;;;;;;;;;5012425;28;20099;-69
2023/09/11 03:56:33;;;;;;;;;;;;;;;;;;5012893;28;20046;-69
2023/09/11 03:58:59;;;;;;;29.38;18.50;;;;;;;;;;5012930;28;19917;-69
2023/09/11 04:01:25;;;;;;;24.92;18.83;;;;;;;;;;4998323;28;20418;-70
2023/09/11 04:03:51;;;;;;;23.60;18.73;;;;;;;;;;4982582;28;20034;-70
2023/09/11 04:06:19;;;;;;;28.15;19.75;;;;;;;;;;4992172;28;20113;-70
2023/09/11 04:08:45;;;;;;;31.05;19.70;;;;;;;;;;5011390;28;20427;-70
2023/09/11 04:11:11;;;;;;;30.05;20.25;;;;;;;;;;5004192;28;20066;-70
2023/09/11 04:13:37;;;;;;;26.48;19.92;;;;;;;;;;5004494;28;20041;-70
2023/09/11 04:16:04;;;;;;;30.85;19.42;;;;;;;;;;5012057;28;20037;-70
2023/09/11 04:18:30;;;;;;;28.20;18.58;;;;;;;;;;5012592;28;20124;-70
2023/09/11 04:21:03;;;;;;;29.85;19.90;;;;;;;;;;5012571;28;20510;-70
2023/09/11 04:23:29;;;;;;;26.42;17.48;;;;;;;;;;5012561;28;20041;-70
2023/09/11 04:25:56;;;;;;;26.58;20.20;;;;;;;;;;5011782;28;20044;-70
2023/09/11 04:28:22;;;;;;;24.42;18.23;;;;;;;;;;5012287;28;20103;-70
2023/09/11 04:30:48;;;;;;;29.73;20.02;;;;;;;;;;5012733;28;20496;-70
2023/09/11 04:33:14;;;;;;;24.63;17.15;;;;;;;;;;5012489;28;20034;-70
2023/09/11 04:35:40;;;;;;;29.38;18.75;;;;;;;;;;5011662;28;20335;-69
2023/09/11 04:38:06;;;;;;;29.25;18.02;;;;;;;;;;5012112;28;20458;-69
2023/09/11 04:40:32;;;;;;;23.60;17.95;;;;;;;;;;5012493;28;20045;-69
2023/09/11 04:42:57;;;;;;;25.35;18.48;;;;;;;;;;5011600;28;20476;-69
2023/09/11 04:45:23;;;;;;;26.98;18.65;;;;;;;;;;5012187;28;20117;-69
2023/09/11 04:47:49;;;;;;;27.95;18.08;;;;;;;;;;5012171;28;20038;-69
2023/09/11 04:50:16;;;;;;;28.80;18.63;;;;;;;;;;5012088;28;20038;-69
2023/09/11 04:52:42;;;;;;;33.40;20.25;;;;;;;;;;5011824;28;20073;-69
2023/09/11 04:55:09;;;;;;;28.20;19.65;;;;;;;;;;5012353;28;20038;-69
2023/09/11 04:57:36;;;;;;;29.17;18.60;;;;;;;;;;5012064;28;20038;-69
2023/09/11 05:00:06;;;;;;;26.02;17.40;;;;;;;;;;5004993;28;20130;-69
2023/09/11 05:02:32;;;;;;;28.70;18.30;;;;;;;;;;5011010;28;20054;-69
2023/09/11 05:04:58;;;;;;;27.83;18.40;;;;;;;;;;5000537;28;20542;-69
2023/09/11 05:07:24;;;;;;;32.05;20.70;;;;;;;;;;5015477;28;20054;-69
2023/09/11 05:09:50;;;;;;;24.80;18.40;;;;;;;;;;5016256;28;20490;-69
2023/09/11 05:12:16;;;;;;;26.65;19.00;;;;;;;;;;5015907;28;20048;-69
2023/09/11 05:14:42;;;;;;;27.77;18.40;;;;;;;;;;5015568;28;20041;-69
2023/09/11 05:17:08;;;;;;;24.80;17.75;;;;;;;;;;5015165;28;20037;-69
2023/09/11 05:19:34;;;;;;;25.58;16.00;;;;;;;;;;5015849;28;20033;-69
2023/09/11 05:22:00;;;;;;;28.45;17.55;;;;;;;;;;5016035;28;20045;-69
2023/09/11 05:24:26;;;;;;;29.08;18.38;;;;;;;;;;5015508;28;20038;-69
2023/09/11 05:26:52;;;;;;;29.20;18.50;;;;;;;;;;5015414;28;20042;-69
2023/09/11 05:29:18;;;;;;;23.83;17.98;;;;;;;;;;5015465;28;20036;-69
2023/09/11 05:31:44;;;;;;;26.92;18.55;;;;;;;;;;5015140;28;20113;-69
2023/09/11 05:34:10;;;;;;;29.52;19.23;;;;;;;;;;5015259;28;20030;-69
2023/09/11 05:36:36;;;;;;;31.45;20.52;;;;;;;;;;5015514;28;20034;-69
2023/09/11 05:39:02;;;;;;;25.38;18.13;;;;;;;;;;5015761;28;20169;-69
2023/09/11 05:41:29;;;;;;;24.08;17.33;;;;;;;;;;5015006;28;20565;-69
2023/09/11 05:43:55;;;;;;;26.95;17.92;;;;;;;;;;5015227;28;20038;-69
2023/09/11 05:46:21;;;;;;;32.38;19.85;;;;;;;;;;5015022;28;20033;-69
2023/09/11 05:48:46;;;;;;;30.95;19.10;;;;;;;;;;5014732;28;20030;-69
2023/09/11 05:51:14;;;;;;;26.98;17.67;;;;;;;;;;5007288;28;20045;-69
2023/09/11 05:53:40;;;;;;;29.85;18.90;;;;;;;;;;5014951;28;20077;-69
2023/09/11 05:56:06;;;;;;;25.65;17.30;;;;;;;;;;5015101;28;20070;-69
2023/09/11 05:58:32;;;;;;;31.55;18.77;;;;;;;;;;5014384;28;20125;-69
2023/09/11 06:00:58;;;;;;;30.73;18.75;;;;;;;;;;5015059;28;20034;-69
2023/09/11 06:03:24;;;;;;;31.40;19.40;;;;;;;;;;5014895;28;20125;-69
2023/09/11 06:05:50;;;;;;;33.20;19.55;;;;;;;;;;5000954;28;20116;-69
2023/09/11 06:08:16;;;;;;;31.58;19.67;;;;;;;;;;5014651;28;20034;-69
2023/09/11 06:10:43;;;;;;;31.42;18.45;;;;;;;;;;5015110;28;20034;-69
2023/09/11 06:13:09;;;;;;;35.92;20.42;;;;;;;;;;5014588;28;20054;-69
2023/09/11 06:15:36;;;;;;;35.67;19.50;;;;;;;;;;5014320;28;20381;-69
2023/09/11 06:18:04;;;;;;;33.75;20.83;;;;;;;;;;5014064;28;20068;-69
2023/09/11 06:20:31;;;;;;;36.17;20.70;;;;;;;;;;5014853;28;20045;-69
2023/09/11 06:22:57;;;;;;;33.72;22.38;;;;;;;;;;5013781;28;20041;-69
2023/09/11 06:25:23;;;;;;;32.25;20.92;;;;;;;;;;5014708;28;20121;-69
2023/09/11 06:27:49;;;;;;;31.55;20.75;;;;;;;;;;5014582;28;20030;-69
2023/09/11 06:30:15;;;;;;;38.30;22.23;;;;;;;;;;5014016;28;20038;-69
2023/09/11 06:32:41;;;;;;;33.88;20.35;;;;;;;;;;5014851;28;20095;-69
2023/09/11 06:35:08;;;;;;;33.22;20.08;;;;;;;;;;5006287;28;20054;-69
2023/09/11 06:37:34;;;;;;;35.38;21.67;;;;;;;;;;5011847;28;20049;-69
2023/09/11 06:40:00;;;;;;;35.45;20.25;;;;;;;;;;5008380;28;20037;-69
2023/09/11 06:42:26;;;;;;;38.70;21.67;;;;;;;;;;5014294;28;20388;-69
2023/09/11 06:44:52;;;;;;;32.72;20.48;;;;;;;;;;5014044;28;20037;-69
2023/09/11 06:47:19;;;;;;;32.70;20.10;;;;;;;;;;5013833;28;20112;-69
2023/09/11 06:49:45;;;;;;;33.65;19.52;;;;;;;;;;5013757;28;20488;-69
2023/09/11 06:52:11;;;;;;;35.40;21.35;;;;;;;;;;5014320;28;20042;-69
2023/09/11 06:54:37;;;;;;;36.03;20.48;;;;;;;;;;5013218;28;20045;-69
2023/09/11 06:57:03;;;;;;;39.42;20.88;;;;;;;;;;5013809;28;20038;-69
2023/09/11 06:59:29;;;;;;;35.80;19.88;;;;;;;;;;5013462;28;20045;-69
2023/09/11 07:01:55;;;;;;;30.95;20.10;;;;;;;;;;5014222;28;20049;-69
2023/09/11 07:04:21;;;;;;;32.15;20.23;;;;;;;;;;4998975;28;20051;-69
2023/09/11 07:06:47;;;;;;;34.15;20.65;;;;;;;;;;5013852;28;20036;-69
2023/09/11 07:09:13;;;;;;;33.30;20.13;;;;;;;;;;5013401;28;20080;-69
2023/09/11 07:11:39;;;;;;;30.38;20.92;;;;;;;;;;5013296;28;20068;-69
2023/09/11 07:14:06;;;;;;;33.50;20.50;;;;;;;;;;5005565;28;20045;-69
2023/09/11 07:16:32;;;;;;;39.72;21.02;;;;;;;;;;5013416;28;20046;-69
2023/09/11 07:18:58;;;;;;;35.38;20.38;;;;;;;;;;5013626;28;20483;-69
2023/09/11 07:21:24;;;;;;;32.28;21.88;;;;;;;;;;5013163;28;20116;-69
2023/09/11 07:23:51;;;;;;;32.55;21.23;;;;;;;;;;5013317;28;20452;-69
2023/09/11 07:26:17;;;;;;;36.63;21.20;;;;;;;;;;5013289;28;20037;-69
2023/09/11 07:28:53;;;;;;;39.35;21.00;;;;;;;;;;5011737;28;20041;-69
2023/09/11 07:31:19;;;;;;;36.20;21.02;;;;;;;;;;5013585;28;20041;-69
2023/09/11 07:33:45;;;;;;;35.03;21.20;;;;;;;;;;5013640;28;20030;-69
2023/09/11 07:36:11;;;;;;;31.80;20.50;;;;;;;;;;5013191;28;20044;-69
2023/09/11 07:38:44;;;;;;;34.65;20.92;;;;;;;;;;5012708;28;20140;-69
2023/09/11 07:41:10;;;;;;;33.40;20.63;;;;;;;;;;5013298;28;20634;-69
2023/09/11 07:43:36;;;;;;;31.20;21.00;;;;;;;;;;5013214;28;20065;-69
2023/09/11 07:46:02;;;;;;;36.22;21.25;;;;;;;;;;5012452;28;20029;-69
2023/09/11 07:48:28;;;;;;;32.88;19.50;;;;;;;;;;5004967;28;20042;-69
2023/09/11 07:50:57;;;;;;;35.30;20.60;;;;;;;;;;5012758;28;20140;-69
2023/09/11 07:53:23;;;;;;;30.05;20.23;;;;;;;;;;5012997;28;20046;-69
2023/09/11 07:55:49;;;;;;;30.35;19.52;;;;;;;;;;5012618;28;20038;-69
2023/09/11 07:58:17;;;;;;;34.00;19.50;;;;;;;;;;5013313;28;20577;-69
2023/09/11 08:00:43;;;;;;;30.10;19.55;;;;;;;;;;5012856;28;20038;-69
2023/09/11 08:03:09;;;;;;;27.88;18.63;;;;;;;;;;5005617;28;20120;-69
2023/09/11 08:05:35;;;;;;;29.83;18.73;;;;;;;;;;4996172;28;20045;-69
2023/09/11 08:08:02;;;;;;;28.15;17.83;;;;;;;;;;5012787;28;20029;-69
2023/09/11 08:10:28;;;;;;;31.70;19.90;;;;;;;;;;5012494;28;20050;-69
2023/09/11 08:12:54;;;;;;;31.65;17.58;;;;;;;;;;5013041;28;20034;-69
2023/09/11 08:15:20;;;;;;;36.58;18.83;;;;;;;;;;5011969;28;20725;-69
2023/09/11 08:17:46;;;;;;;29.50;17.40;;;;;;;;;;5012381;28;20064;-69
2023/09/11 08:20:14;;;;;;;27.90;17.20;;;;;;;;;;5011507;28;20528;-69
2023/09/11 08:22:41;;;;;;;28.63;18.33;;;;;;;;;;5012395;28;20083;-69
2023/09/11 08:25:08;;;;;;;25.40;18.52;;;;;;;;;;5012711;28;20038;-69
2023/09/11 08:27:34;;;;;;;28.83;18.63;;;;;;;;;;5012233;28;20038;-69
2023/09/11 08:30:00;;;;;;;28.30;17.98;;;;;;;;;;5012323;28;20045;-69
2023/09/11 08:32:26;;;;;;;30.15;17.98;;;;;;;;;;5012623;28;20041;-69
2023/09/11 08:34:52;;;;;;;28.55;17.27;;;;;;;;;;5011869;28;20072;-69
2023/09/11 08:37:19;;;;;;;28.70;17.77;;;;;;;;;;5010968;28;20041;-69
2023/09/11 08:39:45;;;;;;;29.27;16.58;;;;;;;;;;5011881;28;20049;-69
2023/09/11 08:42:11;;;;;;;23.33;14.63;;;;;;;;;;5012639;28;20042;-69
2023/09/11 08:44:38;;;;;;;28.38;14.73;;;;;;;;;;5011563;28;20042;-69
2023/09/11 08:47:05;;;;;;;24.10;14.07;;;;;;;;;;5012369;28;20069;-69
2023/09/11 08:49:33;;;;;;;21.17;13.05;;;;;;;;;;5011986;28;20038;-69
2023/09/11 08:52:02;;;;;;;22.17;13.70;;;;;;;;;;5011645;28;20078;-69
2023/09/11 08:54:34;;;;;;;20.42;12.77;;;;;;;;;;5012244;28;20067;-69
2023/09/11 08:57:00;;;;;;;20.85;12.60;;;;;;;;;;5012205;28;20038;-69
2023/09/11 08:59:27;;;;;;;20.67;11.80;;;;;;;;;;5011923;28;20088;-69
2023/09/11 09:01:53;;;;;;;18.27;11.30;;;;;;;;;;5012256;28;20553;-69
2023/09/11 09:04:20;;;;;;;17.15;10.93;;;;;;;;;;4996646;28;20045;-69
2023/09/11 09:06:46;;;;;;;20.77;10.07;;;;;;;;;;5011192;28;20503;-69
2023/09/11 09:09:12;;;;;;;18.70;10.52;;;;;;;;;;5011266;28;20535;-69
2023/09/11 09:11:41;;;;;;;26.00;10.02;;;;;;;;;;5012000;28;20208;-69
2023/09/11 09:14:07;;;;;;;15.25;9.30;;;;;;;;;;5012116;28;20046;-69
2023/09/11 09:16:33;;;;;;;18.27;9.85;;;;;;;;;;5011328;28;20034;-69
2023/09/11 09:19:00;;;;;;;16.08;9.77;;;;;;;;;;5011976;28;20042;-69
2023/09/11 09:21:27;;;;;;;22.38;9.40;;;;;;;;;;5011777;28;20049;-69
2023/09/11 09:23:54;;;;;;;17.23;9.38;;;;;;;;;;5012070;28;20046;-69
2023/09/11 09:26:20;;;;;;;18.98;9.27;;;;;;;;;;5011370;28;20034;-69
2023/09/11 09:28:47;;;;;;;18.27;9.88;;;;;;;;;;5012164;28;20041;-69
2023/09/11 09:31:23;;;;;;;20.45;10.13;;;;;;;;;;5011536;28;20431;-69
2023/09/11 09:33:51;;;;;;;22.20;11.25;;;;;;;;;;5012230;28;20045;-69
2023/09/11 09:36:17;;;;;;;17.52;11.18;;;;;;;;;;5011018;28;20062;-69
2023/09/11 09:38:44;;;;;;;18.40;10.43;;;;;;;;;;5012050;28;20045;-69
2023/09/11 09:41:10;;;;;;;20.15;10.60;;;;;;;;;;5011749;28;20038;-69
2023/09/11 09:43:36;;;;;;;18.67;10.57;;;;;;;;;;5011481;28;20045;-69
2023/09/11 09:46:17;;;;;;;20.08;11.35;;;;;;;;;;5011165;28;20026;-69
2023/09/11 09:48:43;;;;;;;21.38;10.23;;;;;;;;;;5011899;28;20172;-69
2023/09/11 09:51:09;;;;;;;22.38;11.35;;;;;;;;;;5005246;28;20038;-69
2023/09/11 09:53:42;;;;;;;18.15;10.05;;;;;;;;;;5013766;28;20042;-69
2023/09/11 09:56:10;;;;;;;17.42;11.93;;;;;;;;;;5014743;28;20232;-69
2023/09/11 09:58:38;;;;;;;17.35;11.68;;;;;;;;;;5014447;28;20345;-69
2023/09/11 10:01:05;;;;;;;18.05;11.40;;;;;;;;;;5014981;28;20040;-69
2023/09/11 10:03:58;;;;;;;19.42;11.77;;;;;;;;;;5013972;28;20049;-69
2023/09/11 10:06:27;;;;;;;20.27;11.70;;;;;;;;;;5010533;28;20413;-69
2023/09/11 10:09:05;;;;;;;22.33;11.15;;;;;;;;;;5014892;28;20034;-69
2023/09/11 10:11:32;;;;;;;19.48;10.40;;;;;;;;;;5014467;28;20408;-69
2023/09/11 10:13:59;;;;;;;20.88;11.57;;;;;;;;;;5015237;28;20033;-69
2023/09/11 10:16:25;;;;;;;22.60;11.15;;;;;;;;;;5013739;28;20125;-69
2023/09/11 10:18:55;;;;;;;17.77;10.10;;;;;;;;;;5014935;28;20041;-69
2023/09/11 10:21:21;;;;;;;19.13;11.43;;;;;;;;;;5014281;28;20044;-69
2023/09/11 10:23:48;;;;;;;17.75;11.13;;;;;;;;;;5014303;28;20034;-69
2023/09/11 10:26:18;;;;;;;16.38;10.48;;;;;;;;;;5014269;28;20092;-69
2023/09/11 10:28:45;;;;;;;18.17;11.38;;;;;;;;;;5014928;28;20100;-69
2023/09/11 10:31:15;;;;;;;20.85;11.70;;;;;;;;;;5012932;28;20117;-69
2023/09/11 10:33:41;;;;;;;23.30;12.68;;;;;;;;;;5013829;28;20050;-69
2023/09/11 10:36:12;;;;;;;19.60;11.05;;;;;;;;;;5013902;28;20535;-69
2023/09/11 10:38:38;;;;;;;13.48;10.13;;;;;;;;;;5014621;28;20108;-69
2023/09/11 10:41:05;;;;;;;21.00;11.88;;;;;;;;;;5013791;28;20403;-69
2023/09/11 10:43:31;;;;;;;17.27;10.70;;;;;;;;;;5014328;28;20096;-69
2023/09/11 10:45:57;;;;;;;16.65;10.27;;;;;;;;;;5013713;28;20408;-69
2023/09/11 10:51:00;;;;;;;16.73;10.75;;;;;;;;;;4990704;28;20042;-72
2023/09/11 10:53:28;;;;;;;14.70;9.63;;;;;;;;;;5010879;28;20049;-72
2023/09/11 10:55:55;;;;;;;16.70;10.30;;;;;;;;;;5002963;28;20104;-72
2023/09/11 10:58:22;;;;;;;17.13;10.25;;;;;;;;;;4994375;28;20061;-72
2023/09/11 11:00:51;;;;;;;18.90;10.32;;;;;;;;;;4994212;28;20121;-72
2023/09/11 11:03:17;;;;;;;15.85;10.73;;;;;;;;;;4994421;28;20042;-72
2023/09/11 11:05:43;;;;;;;15.23;9.52;;;;;;;;;;4993605;28;20192;-72
2023/09/11 11:08:11;;;;;;;16.33;10.00;;;;;;;;;;4994392;28;20022;-71
2023/09/11 11:10:41;;;;;;;14.55;9.63;;;;;;;;;;4994466;28;20041;-71
2023/09/11 11:13:08;;;;;;;15.07;9.60;;;;;;;;;;4994526;28;20042;-71
2023/09/11 11:15:34;;;;;;;12.18;9.07;;;;;;;;;;4993640;28;20049;-71
2023/09/11 11:18:09;;;;;;;12.88;8.80;;;;;;;;;;4994241;28;20038;-71
2023/09/11 11:20:36;;;;;;;16.65;9.23;;;;;;;;;;4994494;28;20050;-71
2023/09/11 11:23:06;;;;;;;13.98;9.68;;;;;;;;;;4993744;28;20105;-71
2023/09/11 11:25:32;;;;;;;;;;;;;;;;;;4994564;28;20038;-71
2023/09/11 11:28:14;;;;;;;14.52;10.63;;;;;;;;;;4993657;28;20370;-71
2023/09/11 11:30:41;;;;;;;13.88;9.50;;;;;;;;;;4992216;28;20050;-71
2023/09/11 11:33:09;;;;;;;14.73;10.13;;;;;;;;;;4993716;28;20046;-71
2023/09/11 11:35:36;;;;;;;13.82;10.35;;;;;;;;;;4992155;28;20069;-71
2023/09/11 11:38:03;;;;;;;15.73;10.40;;;;;;;;;;4993610;28;20039;-71
2023/09/11 11:40:29;;;;;;;16.63;10.57;;;;;;;;;;4993345;28;20044;-71
2023/09/11 11:42:55;;;;;;;15.32;10.10;;;;;;;;;;4993370;28;20046;-70
2023/09/11 11:45:22;;;;;;;20.27;10.00;;;;;;;;;;4993801;28;20100;-71
2023/09/11 11:47:49;;;;;;;15.40;9.40;;;;;;;;;;4993039;28;20088;-72
2023/09/11 11:50:15;;;;;;;15.27;10.48;;;;;;;;;;4993529;28;20074;-72
2023/09/11 11:52:48;;;;;;;16.73;11.20;;;;;;;;;;4993105;28;20085;-72
2023/09/11 11:55:21;;;;;;;13.15;10.25;;;;;;;;;;4991814;28;20046;-72
2023/09/11 11:57:52;;;;;;;17.98;10.05;;;;;;;;;;4991854;28;20050;-72
2023/09/11 12:00:18;;;;;;;13.93;10.25;;;;;;;;;;4993535;28;20046;-72
2023/09/11 12:02:44;;;;;;;14.68;10.30;;;;;;;;;;4993427;28;20451;-72
2023/09/11 12:05:14;;;;;;;14.45;9.70;;;;;;;;;;4992710;28;20030;-72
2023/09/11 12:07:40;;;;;;;15.20;9.30;;;;;;;;;;4990955;28;20038;-72
2023/09/11 12:10:10;;;;;;;13.57;8.82;;;;;;;;;;4987066;28;20388;-72
2023/09/11 12:12:42;;;;;;;14.07;9.60;;;;;;;;;;4992650;28;20038;-72
2023/09/11 12:15:08;;;;;;;13.85;9.35;;;;;;;;;;4991086;28;20038;-72
2023/09/11 12:17:35;;;;;;;11.10;8.75;;;;;;;;;;4992671;28;20046;-72
2023/09/11 12:20:11;;;;;;;13.93;8.15;;;;;;;;;;4993173;28;20108;-72
2023/09/11 12:22:38;;;;;;;13.77;9.07;;;;;;;;;;4992445;28;20405;-72
2023/09/11 12:25:04;;;;;;;16.13;8.75;;;;;;;;;;4993063;28;20042;-72
2023/09/11 12:27:30;;;;;;;9.73;7.07;;;;;;;;;;4992922;28;20074;-72
2023/09/11 12:29:57;;;;;;;10.75;5.75;;;;;;;;;;4992236;28;20076;-72
2023/09/11 12:32:23;;;;;;;6.60;5.10;;;;;;;;;;4992684;28;20088;-71
2023/09/11 12:34:50;;;;;;;10.90;5.43;;;;;;;;;;4992960;28;20038;-71
2023/09/11 12:37:16;;;;;;;9.07;5.82;;;;;;;;;;4992813;28;20042;-72
2023/09/11 12:39:42;;;;;;;10.85;6.35;;;;;;;;;;4992611;28;20555;-72
2023/09/11 12:42:08;;;;;;;9.25;5.90;;;;;;;;;;4992703;28;20508;-72
2023/09/11 12:44:34;;;;;;;11.02;5.60;;;;;;;;;;4991719;28;20126;-72
2023/09/11 12:47:00;;;;;;;10.38;5.72;;;;;;;;;;4983490;28;20038;-72
2023/09/11 12:49:27;;;;;;;10.68;5.75;;;;;;;;;;4992746;28;20078;-72
2023/09/11 12:51:54;;;;;;;7.43;5.65;;;;;;;;;;4992899;28;20088;-72
2023/09/11 12:54:21;;;;;;;12.63;6.13;;;;;;;;;;4991389;28;20047;-72
2023/09/11 12:56:49;;;;;;;7.97;5.60;;;;;;;;;;4991954;28;20041;-72
2023/09/11 12:59:15;;;;;;;10.30;5.82;;;;;;;;;;4992581;28;20045;-72
2023/09/11 13:01:41;;;;;;;8.05;5.07;;;;;;;;;;4991804;28;20030;-72
2023/09/11 13:04:08;;;;;;;9.55;4.88;;;;;;;;;;4992811;28;20038;-72
2023/09/11 13:06:34;;;;;;;6.32;4.65;;;;;;;;;;4992288;28;20054;-72
2023/09/11 13:09:00;;;;;;;9.68;5.15;;;;;;;;;;4992601;28;20067;-72
2023/09/11 13:11:26;;;;;;;9.77;5.80;;;;;;;;;;4992253;28;20085;-72
2023/09/11 13:13:52;;;;;;;7.75;5.70;;;;;;;;;;4992055;28;20054;-72
2023/09/11 13:16:18;;;;;;;9.45;5.90;;;;;;;;;;4992305;28;20034;-72
2023/09/11 13:18:44;;;;;;;8.32;6.07;;;;;;;;;;4992061;28;20044;-72
2023/09/11 13:21:10;;;;;;;6.93;5.40;;;;;;;;;;4991099;28;20038;-72
2023/09/11 13:23:36;;;;;;;10.23;5.47;;;;;;;;;;4992173;28;20043;-71
2023/09/11 13:26:02;;;;;;;10.80;6.32;;;;;;;;;;4992137;28;20416;-71
2023/09/11 13:28:28;;;;;;;8.68;6.05;;;;;;;;;;4995730;28;20122;-71
2023/09/11 13:30:59;;;;;;;8.13;5.43;;;;;;;;;;4996064;28;20117;-71
2023/09/11 13:33:25;;;;;;;7.82;5.78;;;;;;;;;;4996076;28;20133;-71
2023/09/11 13:35:51;;;;;;;8.88;6.13;;;;;;;;;;4995127;28;20126;-71
2023/09/11 13:38:17;;;;;;;8.35;6.18;;;;;;;;;;4995696;28;20097;-71
2023/09/11 13:40:47;;;;;;;10.75;6.20;;;;;;;;;;4996077;28;20488;-71
2023/09/11 13:43:14;;;;;;;10.52;6.20;;;;;;;;;;4995485;28;20038;-71
2023/09/11 13:45:40;;;;;;;8.73;6.10;;;;;;;;;;4995491;28;20404;-71
2023/09/11 13:48:06;;;;;;;11.70;6.10;;;;;;;;;;4995859;28;20030;-71
2023/09/11 13:50:32;;;;;;;11.38;5.90;;;;;;;;;;4995375;28;20046;-72
2023/09/11 13:52:58;;;;;;;9.73;5.00;;;;;;;;;;4994654;28;20043;-72
2023/09/11 13:55:24;;;;;;;7.32;4.47;;;;;;;;;;4995662;28;20053;-72
2023/09/11 13:57:50;;;;;;;5.80;3.90;;;;;;;;;;4995556;28;20046;-72
2023/09/11 14:00:16;;;;;;;5.63;3.72;;;;;;;;;;4994395;28;20492;-72
2023/09/11 14:02:42;;;;;;;7.57;3.17;;;;;;;;;;4995101;28;20093;-72
2023/09/11 14:05:08;;;;;;;5.63;3.08;;;;;;;;;;4995589;28;20060;-72
2023/09/11 14:07:34;;;;;;;8.50;3.15;;;;;;;;;;4995494;28;20045;-72
2023/09/11 14:10:00;;;;;;;5.28;2.90;;;;;;;;;;4995010;28;20109;-72
2023/09/11 14:12:26;;;;;;;7.97;3.22;;;;;;;;;;4993936;28;20089;-72
2023/09/11 14:14:52;;;;;;;8.02;3.50;;;;;;;;;;4994975;28;20078;-71
2023/09/11 14:17:18;;;;;;;5.25;3.13;;;;;;;;;;4994901;28;20049;-71
2023/09/11 14:19:44;;;;;;;8.35;3.25;;;;;;;;;;4995195;28;20061;-71
2023/09/11 14:22:10;;;;;;;9.07;3.00;;;;;;;;;;4995364;28;20046;-71